Time;durP1;ratioP1;P1;durP2;ratioP2;P2;SDS_P1;SDS_P2;PMS_P1;PMS_P2;Temp;Humidity;BMP_temperature;BMP_pressure;BME280_temperature;BME280_humidity;BME280_pressure;Samples;Min_cycle;Max_cycle;Signal;HPM_P1;HPM_P2
2022/04/20 00:01:31;;;;;;;12.98;6.30;;;;;;;10.91;54.08;101527.41;7399753;19;20019;-59
2022/04/20 00:04:00;;;;;;;9.88;6.15;;;;;;;10.79;54.16;101519.97;7394516;19;20026;-58
2022/04/20 00:06:30;;;;;;;9.32;6.10;;;;;;;10.92;54.14;101526.53;7397312;19;20331;-59
2022/04/20 00:08:59;;;;;;;8.73;6.25;;;;;;;10.91;54.01;101528.25;7398592;19;20022;-56
2022/04/20 00:11:28;;;;;;;8.77;5.75;;;;;;;10.93;53.90;101530.00;7394423;19;20481;-57
2022/04/20 00:13:56;;;;;;;10.40;5.95;;;;;;;11.05;53.16;101527.78;7391578;19;20025;-58
2022/04/20 00:16:28;;;;;;;8.48;5.88;;;;;;;10.94;53.35;101526.47;7393938;19;20353;-57
2022/04/20 00:18:57;;;;;;;9.10;5.95;;;;;;;10.85;53.55;101520.63;7393410;19;20030;-58
2022/04/20 00:21:26;;;;;;;11.25;5.82;;;;;;;10.74;53.13;101528.00;7392850;19;20030;-57
2022/04/20 00:23:56;;;;;;;11.18;6.32;;;;;;;10.69;53.39;101527.31;7390727;19;20010;-58
2022/04/20 00:26:25;;;;;;;8.15;5.80;;;;;;;10.71;53.24;101525.47;7392128;19;20019;-58
2022/04/20 00:28:53;;;;;;;8.88;5.90;;;;;;;10.67;53.41;101522.09;7391027;19;20395;-55
2022/04/20 00:31:22;;;;;;;7.57;5.55;;;;;;;10.65;53.31;101542.25;7391906;19;20007;-55
2022/04/20 00:33:54;;;;;;;7.22;5.43;;;;;;;10.60;53.35;101540.69;7390294;19;20103;-58
2022/04/20 00:36:23;;;;;;;11.00;6.20;;;;;;;10.69;53.80;101535.16;7391174;19;20486;-56
2022/04/20 00:38:52;;;;;;;8.38;5.38;;;;;;;10.60;52.92;101538.91;7392129;19;20010;-57
2022/04/20 00:41:21;;;;;;;8.77;5.50;;;;;;;10.59;52.95;101536.34;7391391;19;20072;-59
2022/04/20 00:43:50;;;;;;;8.60;5.50;;;;;;;10.63;53.21;101544.09;7389274;19;20014;-56
2022/04/20 00:46:21;;;;;;;9.43;5.55;;;;;;;10.59;53.07;101536.34;7391147;19;20014;-57
2022/04/20 00:48:53;;;;;;;7.97;5.10;;;;;;;10.56;52.90;101543.41;7391963;19;20092;-57
2022/04/20 00:51:25;;;;;;;8.52;5.70;;;;;;;10.58;52.76;101540.75;7390083;19;20011;-56
2022/04/20 00:53:54;;;;;;;8.90;5.60;;;;;;;10.52;53.48;101544.44;7388013;19;20017;-57
2022/04/20 00:56:23;;;;;;;7.35;5.40;;;;;;;10.35;53.35;101544.97;7388681;19;20019;-58
2022/04/20 00:58:53;;;;;;;7.72;5.40;;;;;;;10.31;53.37;101542.47;7390001;19;20010;-59
2022/04/20 01:01:23;;;;;;;9.15;5.63;;;;;;;10.38;53.13;101542.25;7392225;19;20328;-56
2022/04/20 01:03:52;;;;;;;8.85;5.60;;;;;;;10.28;53.32;101542.56;7388851;19;20063;-56
2022/04/20 01:06:32;;;;;;;7.80;5.10;;;;;;;10.35;52.86;101539.72;7389621;19;20011;-58
2022/04/20 01:09:07;;;;;;;7.53;5.25;;;;;;;10.22;52.77;101544.44;7389586;19;20035;-55
2022/04/20 01:11:42;;;;;;;8.27;5.25;;;;;;;10.27;52.88;101536.44;7391790;19;20394;-58
2022/04/20 01:14:33;;;;;;;8.43;4.97;;;;;;;10.11;52.97;101533.44;7389441;19;20014;-58
2022/04/20 01:17:20;;;;;;;8.20;4.75;;;;;;;10.13;52.48;101536.91;7391258;19;20031;-59
2022/04/20 01:19:58;;;;;;;7.28;4.80;;;;;;;10.21;52.18;101531.41;7388847;19;20017;-56
2022/04/20 01:22:41;;;;;;;7.47;4.85;;;;;;;10.35;51.79;101537.09;7388342;19;20025;-53
2022/04/20 01:25:27;;;;;;;10.68;4.53;;;;;;;10.27;51.97;101538.22;7389306;19;20015;-58
2022/04/20 01:28:21;;;;;;;6.20;4.80;;;;;;;10.31;51.25;101540.69;7387902;19;20090;-56
2022/04/20 01:31:15;;;;;;;7.45;4.68;;;;;;;10.14;51.54;101535.13;7388185;19;20486;-55
2022/04/20 01:33:58;;;;;;;7.47;3.85;;;;;;;10.16;51.63;101541.19;7387543;19;20349;-56
2022/04/20 01:36:27;;;;;;;7.70;5.15;;;;;;;10.05;51.72;101544.13;7389179;19;20010;-58
2022/04/20 01:38:58;;;;;;;9.85;5.07;;;;;;;10.17;51.68;101540.25;7390000;19;20360;-58
2022/04/20 01:41:27;;;;;;;6.82;4.55;;;;;;;10.13;51.36;101544.75;7388288;19;20459;-56
2022/04/20 01:43:56;;;;;;;8.05;4.85;;;;;;;10.07;51.82;101544.06;7387357;19;20337;-58
2022/04/20 01:46:39;;;;;;;6.43;4.20;;;;;;;9.96;51.62;101537.41;7389624;19;20017;-59
2022/04/20 01:49:43;;;;;;;6.45;4.68;;;;;;;10.03;51.46;101538.94;7389007;19;20121;-54
2022/04/20 01:52:25;;;;;;;6.18;4.57;;;;;;;9.94;51.17;101543.59;7389929;19;20029;-57
2022/04/20 01:55:04;;;;;;;5.78;4.20;;;;;;;9.95;50.25;101546.16;7388027;19;20389;-56
2022/04/20 01:57:53;;;;;;;6.32;4.40;;;;;;;10.10;50.08;101552.72;7390308;19;20025;-51
2022/04/20 02:00:36;;;;;;;5.68;4.32;;;;;;;10.07;49.57;101552.78;7388051;19;20011;-55
2022/04/20 02:03:22;;;;;;;7.95;4.20;;;;;;;10.23;48.47;101547.94;7388024;19;20085;-57
2022/04/20 02:05:58;;;;;;;5.47;3.92;;;;;;;10.13;48.84;101544.75;7387669;19;20381;-58
2022/04/20 02:08:38;;;;;;;6.43;4.22;;;;;;;10.06;48.83;101543.22;7386319;19;20010;-54
2022/04/20 02:11:18;;;;;;;6.68;4.03;;;;;;;10.09;48.94;101544.91;7387373;19;20010;-55
2022/04/20 02:13:48;;;;;;;;;;;;;;;10.00;49.20;101538.16;7387008;19;20015;-53
2022/04/20 02:16:19;;;;;;;6.05;3.90;;;;;;;9.97;49.34;101544.38;7387777;19;19923;-57
2022/04/20 02:19:06;;;;;;;6.93;4.22;;;;;;;10.05;48.72;101539.72;7388845;19;20215;-53
2022/04/20 02:21:45;;;;;;;6.70;3.75;;;;;;;10.03;48.68;101535.47;7386897;19;20074;-59
2022/04/20 02:24:14;;;;;;;5.53;3.80;;;;;;;10.00;49.01;101536.41;7387068;19;20023;-57
2022/04/20 02:26:47;;;;;;;4.68;3.60;;;;;;;9.96;49.06;101540.03;7387232;19;20026;-58
2022/04/20 02:29:16;;;;;;;7.40;3.80;;;;;;;9.97;49.37;101539.13;7386021;19;20014;-57
2022/04/20 02:31:45;;;;;;;6.60;4.30;;;;;;;9.85;49.09;101542.09;7387905;19;20033;-58
2022/04/20 02:34:14;;;;;;;7.90;4.43;;;;;;;9.80;49.61;101547.47;7384067;19;20014;-59
2022/04/20 02:36:43;;;;;;;6.05;4.28;;;;;;;9.83;49.60;101547.38;7387188;19;20025;-55
2022/04/20 02:39:12;;;;;;;6.47;4.07;;;;;;;9.91;49.99;101546.31;7386708;19;20014;-59
2022/04/20 02:41:44;;;;;;;8.77;5.63;;;;;;;9.72;50.07;101546.84;7389130;19;20096;-57
2022/04/20 02:44:16;;;;;;;5.65;3.90;;;;;;;9.66;50.07;101550.50;7386168;19;20019;-57
2022/04/20 02:46:45;;;;;;;6.03;3.90;;;;;;;9.55;50.60;101549.09;7388383;19;20018;-57
2022/04/20 02:49:15;;;;;;;6.35;4.22;;;;;;;9.51;50.89;101546.56;7385877;19;20014;-56
2022/04/20 02:51:45;;;;;;;7.47;4.00;;;;;;;9.51;50.66;101551.78;7387019;19;20456;-57
2022/04/20 02:54:14;;;;;;;5.55;4.03;;;;;;;9.52;50.88;101552.63;7383940;19;20015;-57
2022/04/20 02:56:43;;;;;;;6.00;3.97;;;;;;;9.50;50.64;101551.84;7388031;19;20011;-55
2022/04/20 02:59:15;;;;;;;5.78;4.10;;;;;;;9.53;50.83;101551.75;7386188;19;20022;-54
2022/04/20 03:01:47;;;;;;;6.72;4.32;;;;;;;9.62;50.82;101555.88;7387678;19;20436;-53
2022/04/20 03:04:21;;;;;;;7.80;4.47;;;;;;;9.59;50.40;101550.72;7386887;19;20025;-58
2022/04/20 03:06:50;;;;;;;5.22;3.92;;;;;;;9.41;50.94;101558.16;7386196;19;20070;-54
2022/04/20 03:09:28;;;;;;;6.10;4.10;;;;;;;9.42;50.76;101557.25;7382364;19;20015;-54
2022/04/20 03:11:57;;;;;;;7.22;3.95;;;;;;;9.39;51.00;101559.97;7385630;19;20448;-54
2022/04/20 03:14:28;;;;;;;5.47;4.18;;;;;;;9.25;51.30;101562.09;7385792;19;20014;-57
2022/04/20 03:17:02;;;;;;;6.18;3.97;;;;;;;9.32;51.31;101551.44;7386831;19;20476;-59
2022/04/20 03:19:31;;;;;;;5.13;3.83;;;;;;;9.46;51.17;101551.06;7391987;19;20328;-55
2022/04/20 03:22:00;;;;;;;7.68;3.92;;;;;;;9.12;51.40;101557.19;7393208;19;20010;-55
2022/04/20 03:24:30;;;;;;;4.60;3.40;;;;;;;9.30;50.96;101557.63;7393510;19;20007;-54
2022/04/20 03:27:10;;;;;;;7.25;3.85;;;;;;;9.21;51.25;101563.09;7393714;19;20344;-57
2022/04/20 03:29:45;;;;;;;8.85;4.05;;;;;;;9.28;51.20;101555.03;7392090;19;20015;-57
2022/04/20 03:32:15;;;;;;;7.03;4.20;;;;;;;9.30;51.12;101568.09;7392662;19;20097;-51
2022/04/20 03:34:44;;;;;;;5.80;3.70;;;;;;;9.06;51.56;101564.34;7392333;19;20423;-55
2022/04/20 03:37:15;;;;;;;4.68;3.75;;;;;;;9.18;51.60;101571.84;7394236;19;20027;-57
2022/04/20 03:39:44;;;;;;;5.15;3.80;;;;;;;9.09;51.35;101567.72;7392037;19;20482;-60
2022/04/20 03:42:14;;;;;;;6.43;3.90;;;;;;;9.03;51.62;101577.47;7390928;19;20018;-59
2022/04/20 03:44:45;;;;;;;5.22;3.75;;;;;;;8.92;52.18;101572.53;7393084;19;20031;-58
2022/04/20 03:47:14;;;;;;;7.97;4.10;;;;;;;9.03;51.90;101574.88;7392618;19;20010;-60
2022/04/20 03:49:43;;;;;;;6.72;3.83;;;;;;;8.95;51.93;101578.53;7389587;19;20018;-61
2022/04/20 03:52:12;;;;;;;5.93;3.72;;;;;;;8.98;51.84;101586.31;7392021;19;20443;-60
2022/04/20 03:54:42;;;;;;;6.35;3.67;;;;;;;9.03;51.65;101577.47;7391478;19;20074;-60
2022/04/20 03:57:12;;;;;;;5.80;3.80;;;;;;;9.04;51.39;101580.09;7390832;19;20011;-61
2022/04/20 03:59:51;;;;;;;9.65;5.65;;;;;;;8.93;51.51;101580.34;7391403;19;20014;-61
2022/04/20 04:02:23;;;;;;;6.43;3.80;;;;;;;8.99;51.65;101574.94;7394715;19;20011;-62
2022/04/20 04:05:02;;;;;;;4.70;3.70;;;;;;;8.78;51.94;101578.97;7391873;19;20022;-60
2022/04/20 04:07:43;;;;;;;5.82;3.67;;;;;;;8.82;51.96;101579.75;7390702;19;20018;-63
2022/04/20 04:10:18;;;;;;;6.53;3.97;;;;;;;8.79;52.05;101585.91;7390609;19;20021;-60
2022/04/20 04:12:47;;;;;;;6.97;3.80;;;;;;;8.80;52.16;101579.78;7390635;19;20018;-61
2022/04/20 04:15:18;;;;;;;7.90;3.83;;;;;;;8.85;51.68;101578.81;7391221;19;20129;-60
2022/04/20 04:17:54;;;;;;;4.88;3.50;;;;;;;8.77;52.38;101585.09;7390887;19;20014;-62
2022/04/20 04:20:23;;;;;;;4.60;3.42;;;;;;;8.80;52.12;101582.41;7390002;19;20002;-61
2022/04/20 04:22:53;;;;;;;6.22;3.42;;;;;;;8.80;52.13;101594.63;7389521;19;20017;-62
2022/04/20 04:25:32;;;;;;;6.88;4.03;;;;;;;8.74;52.44;101594.75;7390736;19;20022;-62
2022/04/20 04:28:01;;;;;;;6.25;3.60;;;;;;;8.92;52.32;101598.69;7390463;19;20025;-62
2022/04/20 04:30:32;;;;;;;5.97;3.72;;;;;;;8.83;52.16;101594.53;7387826;19;20488;-62
2022/04/20 04:33:05;;;;;;;5.85;3.65;;;;;;;8.81;52.13;101596.31;7389583;19;20022;-61
2022/04/20 04:35:35;;;;;;;5.15;3.70;;;;;;;8.66;52.50;101603.63;7390938;19;20039;-61
2022/04/20 04:38:05;;;;;;;6.40;3.58;;;;;;;8.64;52.58;101599.34;7391881;19;20021;-61
2022/04/20 04:40:36;;;;;;;5.75;3.67;;;;;;;8.74;52.49;101599.97;7390801;19;20010;-62
2022/04/20 04:43:07;;;;;;;5.57;3.63;;;;;;;8.63;52.38;101603.69;7389547;19;20018;-59
2022/04/20 04:48:39;;;;;;;6.28;3.92;;;;;;;8.75;52.61;101607.78;7389785;19;20019;-59
2022/04/20 04:51:12;;;;;;;7.13;3.80;;;;;;;8.70;51.88;101599.22;7389683;19;20038;-61
2022/04/20 04:53:44;;;;;;;7.63;3.63;;;;;;;8.72;52.24;101604.38;7388815;19;20026;-62
2022/04/20 04:56:16;;;;;;;8.82;3.70;;;;;;;8.71;52.17;101603.53;7390295;19;20014;-61
2022/04/20 04:58:50;;;;;;;6.10;3.60;;;;;;;8.60;52.57;101606.41;7390468;19;20019;-61
2022/04/20 05:01:23;;;;;;;6.45;3.60;;;;;;;8.68;52.14;101613.19;7391695;19;20034;-61
2022/04/20 05:03:53;;;;;;;8.15;3.95;;;;;;;8.64;52.69;101613.28;7388510;19;20030;-60
2022/04/20 05:06:23;;;;;;;8.82;3.55;;;;;;;8.63;52.15;101613.31;7389319;19;20025;-61
2022/04/20 05:09:01;;;;;;;7.03;3.50;;;;;;;8.60;52.40;101606.41;7389924;19;20010;-61
2022/04/20 05:11:31;;;;;;;5.43;3.28;;;;;;;8.57;52.44;101614.31;7389000;19;20017;-62
2022/04/20 05:14:00;;;;;;;7.25;3.70;;;;;;;8.63;52.12;101616.75;7388054;19;20051;-61
2022/04/20 05:16:33;;;;;;;9.15;3.80;;;;;;;8.63;52.43;101616.75;7388989;19;20472;-61
2022/04/20 05:19:05;;;;;;;5.28;3.70;;;;;;;8.71;52.23;101615.72;7400917;19;20011;-58
2022/04/20 05:21:34;;;;;;;7.72;3.80;;;;;;;8.68;52.29;101618.41;7419272;19;20051;-61
2022/04/20 05:24:04;;;;;;;11.35;3.88;;;;;;;8.81;52.48;101622.44;7387754;19;20021;-61
2022/04/20 05:26:37;;;;;;;5.80;3.35;;;;;;;8.79;52.22;101625.09;7392385;19;20112;-60
2022/04/20 05:29:06;;;;;;;8.38;3.50;;;;;;;8.82;51.74;101625.03;7388049;19;20021;-60
2022/04/20 05:31:46;;;;;;;6.90;3.63;;;;;;;8.79;51.96;101619.88;7389203;19;20030;-60
2022/04/20 05:34:23;;;;;;;5.90;3.95;;;;;;;8.82;51.49;101629.41;7388688;19;20349;-60
2022/04/20 05:42:15;;;;;;;8.95;3.85;;;;;;;8.76;51.40;101629.56;7387937;19;20026;-62
2022/04/20 05:44:43;;;;;;;6.85;3.58;;;;;;;8.80;51.61;101626.81;7388711;19;20391;-62
2022/04/20 05:47:15;;;;;;;8.88;3.17;;;;;;;8.87;51.42;101621.44;7390845;19;20007;-59
2022/04/20 05:49:44;;;;;;;6.50;3.63;;;;;;;8.97;51.23;101628.19;7386898;19;20018;-61
2022/04/20 05:52:15;;;;;;;7.35;3.42;;;;;;;8.92;50.96;101623.06;7387448;19;20465;-60
2022/04/20 05:54:44;;;;;;;7.72;3.63;;;;;;;9.07;50.52;101626.19;7388263;19;20014;-61
2022/04/20 05:57:13;;;;;;;5.68;3.22;;;;;;;9.20;50.81;101632.84;7388373;19;20074;-62
2022/04/20 05:59:47;;;;;;;7.63;3.88;;;;;;;9.25;50.67;101627.47;7387621;19;20022;-60
2022/04/20 06:02:18;;;;;;;9.07;4.10;;;;;;;9.21;50.68;101625.84;7391884;19;20018;-62
2022/04/20 06:04:47;;;;;;;8.57;3.88;;;;;;;9.32;50.58;101621.19;7389991;19;20110;-58
2022/04/20 06:07:33;;;;;;;6.78;3.75;;;;;;;9.20;50.62;101617.16;7390103;19;20015;-59
2022/04/20 06:10:20;;;;;;;6.85;4.10;;;;;;;9.33;50.55;101610.69;7388802;19;20340;-55
2022/04/20 06:12:59;;;;;;;5.82;3.25;;;;;;;9.29;50.11;101614.28;7388607;19;20014;-57
2022/04/20 06:15:54;;;;;;;7.47;3.72;;;;;;;9.49;50.80;101610.28;7389837;19;20028;-53
2022/04/20 06:18:33;;;;;;;11.65;4.05;;;;;;;9.56;49.32;101617.06;7389730;19;20095;-56
2022/04/20 06:21:19;;;;;;;9.05;3.70;;;;;;;9.47;49.48;101619.91;7387273;19;20022;-59
2022/04/20 06:24:08;;;;;;;8.82;3.28;;;;;;;9.56;49.67;101613.59;7388512;19;20011;-56
2022/04/20 06:26:59;;;;;;;7.55;3.85;;;;;;;9.75;49.49;101616.56;7389209;19;20010;-55
2022/04/20 06:29:39;;;;;;;6.05;3.38;;;;;;;9.82;49.36;101613.72;7388653;19;20030;-56
2022/04/20 06:32:28;;;;;;;4.00;3.08;;;;;;;9.83;48.89;101610.22;7388627;19;20023;-58
2022/04/20 06:35:26;;;;;;;5.25;3.53;;;;;;;9.79;48.90;101619.03;7389491;19;20025;-53
2022/04/20 06:38:24;;;;;;;5.00;3.15;;;;;;;9.81;48.66;101621.63;7386785;19;20029;-57
2022/04/20 06:41:08;;;;;;;6.50;3.35;;;;;;;9.79;48.32;101623.44;7387684;19;20129;-57
2022/04/20 06:43:40;;;;;;;11.93;3.85;;;;;;;9.95;48.67;101610.75;7388935;19;20022;-55
2022/04/20 06:46:28;;;;;;;7.95;3.90;;;;;;;10.08;48.29;101611.25;7389682;19;20038;-57
2022/04/20 06:49:18;;;;;;;6.63;3.60;;;;;;;10.14;48.46;101608.44;7385710;19;20018;-59
2022/04/20 07:00:27;;;;;;;5.20;2.93;;;;;;;10.42;47.56;101612.91;7395767;19;20478;-55
2022/04/20 07:03:07;;;;;;;5.57;3.40;;;;;;;10.51;47.65;101626.56;7394263;19;20021;-55
2022/04/20 07:05:54;;;;;;;8.40;3.65;;;;;;;10.59;47.20;101621.09;7395666;19;20575;-56
2022/04/20 07:08:36;;;;;;;9.40;3.90;;;;;;;10.69;46.84;101621.66;7397662;19;20010;-57
2022/04/20 07:11:12;;;;;;;6.20;3.90;;;;;;;10.79;47.25;101622.19;7394872;19;20050;-52
2022/04/20 07:13:41;;;;;;;6.38;3.60;;;;;;;10.82;46.95;101624.75;7392238;19;20082;-55
2022/04/20 07:16:10;;;;;;;7.10;3.72;;;;;;;10.82;47.10;101630.00;7394180;19;20015;-57
2022/04/20 07:18:43;;;;;;;6.97;3.90;;;;;;;10.78;47.85;101631.00;7398545;19;20111;-58
2022/04/20 07:21:39;;;;;;;5.18;3.60;;;;;;;10.85;47.75;101638.59;7421071;19;20145;-57
2022/04/20 07:24:31;;;;;;;8.20;3.47;;;;;;;10.96;47.58;101642.63;7395610;19;20011;-57
2022/04/20 07:27:02;;;;;;;9.82;4.00;;;;;;;10.89;47.69;101644.63;7396537;19;20022;-56
2022/04/20 07:29:43;;;;;;;13.88;4.57;;;;;;;11.07;48.02;101641.41;7391347;19;20479;-61
2022/04/20 07:32:24;;;;;;;6.75;3.72;;;;;;;10.99;48.19;101640.78;7393439;19;20025;-61
2022/04/20 07:35:06;;;;;;;5.57;3.60;;;;;;;10.89;47.71;101649.88;7395586;19;20018;-61
2022/04/20 07:37:42;;;;;;;7.60;3.60;;;;;;;10.99;48.30;101642.53;7393169;19;20113;-61
2022/04/20 07:40:25;;;;;;;6.47;3.70;;;;;;;11.06;47.60;101638.78;7395021;19;20337;-62
2022/04/20 07:43:06;;;;;;;9.32;5.00;;;;;;;11.34;47.52;101645.75;7394706;19;20018;-62
2022/04/20 07:45:43;;;;;;;5.20;3.53;;;;;;;11.65;48.19;101644.66;7396217;19;20021;-63
2022/04/20 07:48:38;;;;;;;6.93;3.65;;;;;;;11.82;46.88;101644.06;7392751;19;20045;-58
2022/04/20 07:51:26;;;;;;;6.78;3.65;;;;;;;11.75;47.03;101651.34;7392273;19;20039;-60
2022/04/20 07:54:20;;;;;;;31.50;5.20;;;;;;;11.88;47.42;101647.34;7392720;19;20043;-59
2022/04/20 07:57:27;;;;;;;7.32;3.83;;;;;;;12.11;46.92;101635.16;7392721;19;20089;-60
2022/04/20 08:00:19;;;;;;;5.85;4.00;;;;;;;12.12;46.50;101639.47;7395076;19;20029;-60
2022/04/20 08:03:14;;;;;;;4.70;3.35;;;;;;;12.28;46.46;101639.78;7394041;19;20010;-60
2022/04/20 08:05:44;;;;;;;7.75;3.70;;;;;;;12.49;45.74;101642.50;7393413;19;20011;-59
2022/04/20 08:08:14;;;;;;;7.20;3.78;;;;;;;12.49;45.44;101643.34;7393890;19;20017;-61
2022/04/20 08:10:42;;;;;;;8.15;3.80;;;;;;;12.47;46.08;101637.28;7390717;19;20051;-61
2022/04/20 08:15:57;;;;;;;8.82;3.80;;;;;;;12.93;44.79;101653.84;7392423;19;20073;-61
2022/04/20 08:18:38;;;;;;;6.60;3.22;;;;;;;12.80;45.45;101650.00;7392480;19;20498;-60
2022/04/20 08:21:36;;;;;;;11.38;3.38;;;;;;;12.88;44.79;101655.84;7393983;19;20025;-59
2022/04/20 08:24:06;;;;;;;5.13;3.17;;;;;;;13.11;44.50;101646.13;7391373;19;20010;-60
2022/04/20 08:26:35;;;;;;;6.57;3.22;;;;;;;12.97;43.69;101644.91;7395697;19;20488;-60
2022/04/20 08:29:09;;;;;;;8.32;3.55;;;;;;;13.19;43.54;101654.56;7393330;19;20483;-60
2022/04/20 08:31:39;;;;;;;7.32;3.60;;;;;;;13.00;43.06;101656.25;7393721;19;20829;-60
2022/04/20 08:34:07;;;;;;;4.40;3.10;;;;;;;13.13;42.96;101655.66;7391773;19;20044;-61
2022/04/20 08:36:36;;;;;;;9.80;3.63;;;;;;;12.94;43.66;101655.56;7394269;19;20483;-59
2022/04/20 08:39:06;;;;;;;5.78;2.83;;;;;;;13.22;42.69;101659.69;7392715;19;20495;-61
2022/04/20 08:41:34;;;;;;;4.65;3.20;;;;;;;13.08;42.04;101648.88;7392945;19;20014;-60
2022/04/20 08:44:05;;;;;;;8.23;3.35;;;;;;;13.11;42.61;101654.00;7391330;19;20492;-60
2022/04/20 08:46:42;;;;;;;6.18;3.00;;;;;;;13.37;42.12;101645.06;7392781;19;20535;-60
2022/04/20 08:49:11;;;;;;;9.85;3.72;;;;;;;13.83;42.67;101644.84;7391608;19;20025;-61
2022/04/20 08:54:22;;;;;;;7.82;3.75;;;;;;;13.94;41.24;101644.34;7392925;19;20511;-60
2022/04/20 08:59:33;;;;;;;9.93;3.80;;;;;;;14.05;41.45;101660.50;7393621;19;20014;-61
2022/04/20 09:02:06;;;;;;;10.82;3.97;;;;;;;14.22;41.73;101656.25;7395506;19;20023;-61
2022/04/20 09:04:35;;;;;;;5.72;3.50;;;;;;;14.00;40.96;101662.53;7394167;19;20014;-60
2022/04/20 09:07:05;;;;;;;5.20;3.17;;;;;;;13.93;41.19;101656.66;7392407;19;20499;-61
2022/04/20 09:09:34;;;;;;;4.78;3.47;;;;;;;14.23;40.94;101647.41;7392422;19;20515;-60
2022/04/20 09:12:02;;;;;;;7.47;3.33;;;;;;;14.03;41.63;101638.66;7392510;19;20018;-61
2022/04/20 09:14:32;;;;;;;4.18;3.00;;;;;;;13.93;40.87;101645.28;7393088;19;20022;-61
2022/04/20 09:17:01;;;;;;;6.95;3.53;;;;;;;14.21;42.10;101646.63;7391788;19;20472;-61
2022/04/20 09:19:33;;;;;;;6.78;3.72;;;;;;;14.18;41.68;101650.25;7391967;19;20011;-60
2022/04/20 09:22:02;;;;;;;6.10;3.40;;;;;;;14.63;41.27;101656.97;7417587;19;20038;-57
2022/04/20 09:24:30;;;;;;;7.07;3.08;;;;;;;14.27;39.97;101651.63;7402314;19;20022;-60
2022/04/20 09:27:00;;;;;;;20.48;4.15;;;;;;;14.07;41.26;101650.78;7391451;19;20360;-60
2022/04/20 09:29:29;;;;;;;5.70;3.47;;;;;;;14.57;40.25;101645.81;7391324;19;20491;-60
2022/04/20 09:31:58;;;;;;;6.97;3.60;;;;;;;14.45;40.24;101640.22;7392928;19;20011;-60
2022/04/20 09:34:53;;;;;;;5.70;3.17;;;;;;;14.41;40.24;101636.00;7390767;19;20015;-60
2022/04/20 09:37:24;;;;;;;5.55;3.30;;;;;;;14.50;40.15;101624.19;7390746;19;20089;-59
2022/04/20 09:39:53;;;;;;;7.70;3.42;;;;;;;14.30;40.62;101628.63;7388050;19;20039;-59
2022/04/20 09:42:24;;;;;;;9.18;3.65;;;;;;;14.69;39.59;101632.09;7390151;19;20026;-60
2022/04/20 09:44:59;;;;;;;9.82;3.75;;;;;;;14.73;40.24;101628.38;7390901;19;20015;-60
2022/04/20 09:50:16;;;;;;;18.55;4.38;;;;;;;15.23;40.06;101627.63;7389549;19;20019;-59
2022/04/20 09:52:48;;;;;;;8.38;3.95;;;;;;;14.83;40.04;101620.88;7390063;19;20029;-61
2022/04/20 09:55:21;;;;;;;5.85;3.47;;;;;;;14.83;39.66;101634.91;7389748;19;20018;-60
2022/04/20 09:57:50;;;;;;;;;;;;;;;14.93;40.17;101624.75;7390168;19;20022;-60
2022/04/20 10:00:20;;;;;;;9.15;3.28;;;;;;;15.33;37.98;101624.50;7389281;19;20597;-61
2022/04/20 10:02:51;;;;;;;4.88;3.15;;;;;;;15.45;38.05;101625.69;7390175;19;20024;-60
2022/04/20 10:05:24;;;;;;;13.27;3.78;;;;;;;15.55;38.54;101626.91;7390309;19;20026;-61
2022/04/20 10:07:56;;;;;;;8.20;3.20;;;;;;;15.08;37.95;101617.00;7390678;19;20498;-59
2022/04/20 10:10:25;;;;;;;8.32;3.30;;;;;;;15.53;38.62;101621.72;7388986;19;20048;-59
2022/04/20 10:12:54;;;;;;;4.18;2.67;;;;;;;15.06;37.47;101617.09;7389438;19;20029;-61
2022/04/20 10:18:08;;;;;;;5.93;3.45;;;;;;;15.33;37.96;101611.31;7390557;19;20107;-61
2022/04/20 10:20:46;;;;;;;4.30;3.13;;;;;;;15.27;37.80;101601.91;7388906;19;20007;-59
2022/04/20 10:23:19;;;;;;;4.50;2.90;;;;;;;15.49;38.15;101608.75;7389101;19;20217;-60
2022/04/20 10:25:50;;;;;;;4.63;3.30;;;;;;;15.27;38.24;101598.44;7390713;19;20028;-61
2022/04/20 10:28:26;;;;;;;6.32;3.22;;;;;;;15.87;38.76;101595.28;7395952;19;20360;-59
2022/04/20 10:31:09;;;;;;;8.30;3.00;;;;;;;16.20;37.37;101582.00;7395585;19;20021;-61
2022/04/20 10:33:38;;;;;;;9.73;3.40;;;;;;;16.54;37.38;101577.47;7394024;19;20044;-61
2022/04/20 10:36:30;;;;;;;10.90;3.60;;;;;;;16.33;37.66;101581.31;7396415;19;20021;-60
2022/04/20 10:39:22;;;;;;;7.22;3.58;;;;;;;16.38;36.59;101580.13;7313312;19;20014;-61
2022/04/20 10:42:22;;;;;;;5.90;3.45;;;;;;;16.34;36.67;101575.09;7395742;19;20486;-60
2022/04/20 10:45:01;;;;;;;5.95;3.70;;;;;;;16.29;37.18;101574.50;7397000;19;20030;-60
2022/04/20 10:47:31;;;;;;;4.72;3.33;;;;;;;16.34;37.62;101568.00;7397006;19;20014;-61
2022/04/20 10:50:16;;;;;;;7.07;3.28;;;;;;;16.69;36.80;101574.88;7395092;19;20026;-60
2022/04/20 10:52:52;;;;;;;7.40;3.80;;;;;;;16.37;36.54;101561.69;7395319;19;20022;-60
2022/04/20 10:55:54;;;;;;;5.72;3.47;;;;;;;16.78;36.86;101566.41;7394779;19;20014;-61
2022/04/20 10:58:24;;;;;;;7.25;3.55;;;;;;;16.50;36.58;101561.84;7396059;19;20025;-61
2022/04/20 11:01:12;;;;;;;9.20;3.30;;;;;;;16.12;37.17;101564.84;7396133;19;20065;-61
2022/04/20 11:04:07;;;;;;;4.97;3.50;;;;;;;16.16;37.90;101555.81;7394472;19;20371;-59
2022/04/20 11:07:06;;;;;;;5.25;3.85;;;;;;;16.63;37.48;101556.72;7396295;19;20014;-60
2022/04/20 11:10:02;;;;;;;3.58;3.05;;;;;;;16.52;36.30;101560.81;7393836;19;20019;-61
2022/04/20 11:18:42;;;;;;;6.40;3.97;;;;;;;16.43;36.59;101545.47;7395328;19;20748;-59
2022/04/20 11:21:32;;;;;;;13.35;3.47;;;;;;;16.87;36.71;101535.88;7398399;19;20011;-56
2022/04/20 11:24:05;;;;;;;4.18;3.20;;;;;;;16.97;35.92;101533.59;7425032;19;20011;-61
2022/04/20 11:26:39;;;;;;;9.02;3.33;;;;;;;16.76;36.00;101536.50;7396632;19;20019;-62
2022/04/20 11:29:14;;;;;;;4.60;2.97;;;;;;;16.53;36.02;101527.28;7396224;19;20019;-61
2022/04/20 11:31:47;;;;;;;5.95;3.10;;;;;;;16.92;35.96;101523.25;7393823;19;20044;-60
2022/04/20 11:34:18;;;;;;;5.15;3.30;;;;;;;17.03;35.83;101530.56;7393337;19;20026;-60
2022/04/20 11:36:48;;;;;;;13.82;4.75;;;;;;;17.79;36.10;101526.75;7395282;19;20052;-60
2022/04/20 11:39:19;;;;;;;8.73;4.40;;;;;;;17.78;35.06;101522.41;7393647;19;20360;-60
2022/04/20 11:41:52;;;;;;;8.30;3.90;;;;;;;17.64;35.28;101510.88;7395410;19;20021;-60
2022/04/20 11:44:23;;;;;;;4.30;2.95;;;;;;;17.73;35.24;101516.56;7395628;19;20022;-61
2022/04/20 11:46:53;;;;;;;3.65;3.30;;;;;;;17.28;35.87;101524.63;7396049;19;20030;-62
2022/04/20 11:49:23;;;;;;;9.38;3.65;;;;;;;17.55;34.91;101518.53;7393818;19;20464;-61
2022/04/20 11:51:57;;;;;;;5.88;3.92;;;;;;;17.47;35.16;101525.19;7391766;19;20021;-61
2022/04/20 11:54:29;;;;;;;6.20;3.70;;;;;;;17.19;35.69;101511.94;7393646;19;20027;-60
2022/04/20 11:57:11;;;;;;;7.70;3.58;;;;;;;17.25;36.34;101516.84;7395229;19;20376;-59
2022/04/20 11:59:44;;;;;;;13.32;4.00;;;;;;;17.35;36.14;101514.50;7397169;19;20030;-60
2022/04/20 12:02:15;;;;;;;8.40;3.83;;;;;;;17.63;35.91;101506.50;7402801;19;20011;-60
2022/04/20 12:04:46;;;;;;;4.35;3.30;;;;;;;18.08;35.50;101503.72;7400481;19;20373;-60
2022/04/20 12:07:17;;;;;;;5.55;3.50;;;;;;;17.67;35.03;101509.00;7402218;19;20022;-60
2022/04/20 12:09:53;;;;;;;5.50;3.50;;;;;;;17.60;35.79;101501.41;7404617;19;20022;-59
2022/04/20 12:12:25;;;;;;;6.93;3.42;;;;;;;17.76;35.58;101498.63;7403924;19;20460;-60
2022/04/20 12:14:53;;;;;;;16.27;3.95;;;;;;;18.07;35.74;101487.91;7399568;19;20022;-60
2022/04/20 12:17:23;;;;;;;6.22;3.55;;;;;;;18.09;35.37;101489.47;7398055;19;20317;-59
2022/04/20 12:19:55;;;;;;;;;;;;;;;18.09;34.95;101489.47;7395126;19;20022;-61
2022/04/20 12:22:24;;;;;;;7.43;3.42;;;;;;;18.01;35.60;101489.16;7394437;19;19922;-59
2022/04/20 12:25:06;;;;;;;9.75;3.40;;;;;;;18.13;35.42;101493.63;7395065;19;20018;-60
2022/04/20 12:27:52;;;;;;;19.17;4.00;;;;;;;18.54;35.07;101485.69;7394954;19;20085;-60
2022/04/20 12:30:44;;;;;;;6.43;3.53;;;;;;;18.29;35.30;101485.50;7393577;19;20021;-61
2022/04/20 12:33:23;;;;;;;5.32;3.28;;;;;;;18.55;35.30;101484.75;7393602;19;20010;-60
2022/04/20 12:36:03;;;;;;;5.40;3.47;;;;;;;18.52;35.08;101482.28;7393965;19;20014;-60
2022/04/20 12:38:48;;;;;;;6.72;4.10;;;;;;;18.30;35.75;101478.44;7392062;19;20019;-60
2022/04/20 12:41:38;;;;;;;5.78;3.42;;;;;;;17.78;35.70;101470.25;7392861;19;20026;-61
2022/04/20 12:44:41;;;;;;;6.47;3.35;;;;;;;17.78;36.30;101466.72;7392186;19;20587;-60